Time;durP1;ratioP1;P1;durP2;ratioP2;P2;SDS_P1;SDS_P2;PMS_P1;PMS_P2;Temp;Humidity;BMP_temperature;BMP_pressure;BME280_temperature;BME280_humidity;BME280_pressure;Samples;Min_cycle;Max_cycle;Signal;HPM_P1;HPM_P2
2021/11/06 00:01:02;;;;;;;6.93;3.95;;;24.20;41.10;;;;;;6142099;28;80560;-62
2021/11/06 00:04:03;;;;;;;7.70;3.92;;;24.10;41.30;;;;;;6154086;28;80583;-62
2021/11/06 00:07:04;;;;;;;9.80;4.57;;;24.10;41.30;;;;;;6142632;28;80255;-62
2021/11/06 00:10:05;;;;;;;6.78;4.20;;;24.10;40.90;;;;;;6142473;28;82289;-61
2021/11/06 00:13:05;;;;;;;7.10;3.83;;;24.10;41.50;;;;;;6157058;28;80816;-61
2021/11/06 00:16:06;;;;;;;7.55;4.50;;;24.10;41.10;;;;;;6152455;28;81929;-61
2021/11/06 00:19:06;;;;;;;6.03;3.67;;;24.10;42.00;;;;;;6147089;28;80367;-61
2021/11/06 00:22:08;;;;;;;8.75;4.32;;;24.10;41.30;;;;;;6143523;28;81741;-61
2021/11/06 00:25:08;;;;;;;7.63;4.80;;;24.10;41.10;;;;;;6145682;28;80742;-61
2021/11/06 00:28:09;;;;;;;6.45;4.05;;;24.10;41.00;;;;;;6141029;28;80843;-61
2021/11/06 00:31:10;;;;;;;8.35;4.85;;;24.10;41.20;;;;;;6142124;28;80634;-61
2021/11/06 00:34:11;;;;;;;8.48;4.28;;;24.10;40.90;;;;;;6151277;28;80570;-61
2021/11/06 00:37:11;;;;;;;8.23;4.85;;;24.10;41.40;;;;;;6154933;28;80609;-62
2021/11/06 00:40:12;;;;;;;8.27;4.82;;;24.10;41.20;;;;;;6144427;28;80508;-61
2021/11/06 00:43:12;;;;;;;8.80;4.78;;;24.10;41.50;;;;;;6142149;28;80578;-62
2021/11/06 00:46:13;;;;;;;8.10;4.80;;;24.10;42.10;;;;;;6146771;28;80337;-62
2021/11/06 00:49:13;;;;;;;7.55;4.45;;;24.10;41.00;;;;;;6152346;28;87280;-61
2021/11/06 00:52:14;;;;;;;9.18;5.15;;;24.10;41.10;;;;;;6147118;28;82740;-61
2021/11/06 00:55:15;;;;;;;9.57;5.53;;;24.10;41.90;;;;;;6142613;28;81357;-60
2021/11/06 00:58:15;;;;;;;7.20;4.82;;;24.10;42.00;;;;;;6140803;28;80211;-60
2021/11/06 01:01:16;;;;;;;8.45;4.88;;;24.10;42.10;;;;;;6145070;28;82476;-61
2021/11/06 01:04:16;;;;;;;8.10;5.03;;;24.10;41.40;;;;;;6146363;28;83157;-61
2021/11/06 01:07:17;;;;;;;7.70;4.50;;;24.10;41.50;;;;;;6144104;28;80490;-61
2021/11/06 01:10:17;;;;;;;9.95;5.20;;;24.00;42.20;;;;;;6144351;28;80244;-61
2021/11/06 01:13:19;;;;;;;9.48;5.60;;;24.00;41.60;;;;;;6145787;28;80961;-60
2021/11/06 01:16:19;;;;;;;7.68;4.85;;;24.00;41.30;;;;;;6149985;28;80703;-60
2021/11/06 01:19:20;;;;;;;7.15;4.70;;;24.00;41.40;;;;;;6159147;28;80503;-61
2021/11/06 01:22:20;;;;;;;7.75;5.20;;;24.00;41.10;;;;;;6144815;28;80375;-61
2021/11/06 01:25:21;;;;;;;8.50;5.07;;;24.00;40.80;;;;;;6143930;28;82920;-61
2021/11/06 01:28:22;;;;;;;6.78;4.40;;;24.00;41.00;;;;;;6163154;28;80270;-61
2021/11/06 01:31:22;;;;;;;8.38;5.00;;;24.00;41.10;;;;;;6143126;28;80962;-60
2021/11/06 01:34:23;;;;;;;6.40;4.38;;;24.00;41.00;;;;;;6148299;28;80352;-61
2021/11/06 01:37:23;;;;;;;7.70;4.82;;;24.00;41.70;;;;;;6151938;28;81232;-61
2021/11/06 01:40:24;;;;;;;7.88;5.07;;;24.00;40.90;;;;;;6148275;28;80231;-61
2021/11/06 01:43:24;;;;;;;8.98;5.35;;;24.00;40.90;;;;;;6138835;28;80478;-61
2021/11/06 01:46:25;;;;;;;7.28;4.85;;;24.00;41.70;;;;;;6143739;28;80912;-61
2021/11/06 01:49:25;;;;;;;8.88;4.72;;;24.00;40.90;;;;;;6150781;28;81155;-61
2021/11/06 01:52:26;;;;;;;8.40;4.43;;;24.00;41.30;;;;;;6139921;28;80837;-61
2021/11/06 01:55:26;;;;;;;7.10;4.93;;;24.00;41.50;;;;;;6141156;28;81804;-61
2021/11/06 01:58:27;;;;;;;8.45;5.05;;;24.00;41.10;;;;;;6135538;28;80467;-60
2021/11/06 02:01:27;;;;;;;7.45;4.25;;;24.00;41.10;;;;;;6148280;28;83494;-61
2021/11/06 02:04:28;;;;;;;6.85;4.18;;;24.00;41.70;;;;;;6148767;28;80861;-61
2021/11/06 02:07:28;;;;;;;7.15;4.60;;;24.00;41.20;;;;;;6146001;28;80996;-61
2021/11/06 02:10:29;;;;;;;7.13;4.63;;;24.00;41.10;;;;;;6147465;28;80515;-61
2021/11/06 02:13:29;;;;;;;7.00;4.30;;;24.00;41.10;;;;;;6139110;28;81739;-60
2021/11/06 02:16:30;;;;;;;6.32;4.15;;;24.00;42.30;;;;;;6149842;28;80955;-61
2021/11/06 02:19:30;;;;;;;6.15;3.83;;;24.00;41.00;;;;;;6154933;28;80311;-60
2021/11/06 02:22:31;;;;;;;5.50;3.83;;;24.00;41.30;;;;;;6140173;28;80245;-61
2021/11/06 02:25:31;;;;;;;6.15;4.25;;;24.00;41.90;;;;;;6143456;28;81941;-61
2021/11/06 02:28:32;;;;;;;6.28;4.38;;;24.00;42.30;;;;;;6145424;28;80426;-61
2021/11/06 02:31:32;;;;;;;7.38;4.22;;;24.00;40.90;;;;;;6151222;28;80970;-61
2021/11/06 02:34:33;;;;;;;6.10;3.88;;;24.00;41.40;;;;;;6151043;28;80405;-61
2021/11/06 02:37:33;;;;;;;5.38;3.58;;;23.90;40.70;;;;;;6144508;28;87326;-61
2021/11/06 02:40:34;;;;;;;6.38;4.35;;;23.90;41.30;;;;;;6146774;28;80446;-61
2021/11/06 02:43:34;;;;;;;7.00;4.43;;;23.90;40.70;;;;;;6149991;28;81036;-61
2021/11/06 02:46:35;;;;;;;5.88;4.20;;;23.90;41.20;;;;;;6145950;28;80194;-61
2021/11/06 02:49:36;;;;;;;6.05;4.15;;;23.90;41.10;;;;;;6145648;28;80467;-62
2021/11/06 02:52:36;;;;;;;5.13;3.80;;;23.90;40.90;;;;;;6150021;28;80932;-61
2021/11/06 02:55:37;;;;;;;5.22;3.72;;;23.90;41.10;;;;;;6157071;28;81704;-61
2021/11/06 02:58:38;;;;;;;4.20;3.80;;;23.90;40.70;;;;;;6157902;28;80503;-61
2021/11/06 03:01:38;;;;;;;6.15;4.18;;;23.90;40.60;;;;;;6145351;28;80658;-61
2021/11/06 03:04:39;;;;;;;5.57;4.10;;;23.90;41.10;;;;;;6150522;28;80854;-61
2021/11/06 03:07:39;;;;;;;5.30;4.00;;;23.90;40.80;;;;;;6150533;28;82190;-61
2021/11/06 03:10:40;;;;;;;5.40;3.78;;;23.90;40.50;;;;;;6146932;28;80343;-60
2021/11/06 03:13:40;;;;;;;5.15;3.83;;;23.90;41.70;;;;;;6151043;28;81367;-61
2021/11/06 03:16:41;;;;;;;6.03;4.38;;;23.90;41.00;;;;;;6145928;28;81189;-61
2021/11/06 03:19:41;;;;;;;6.10;3.90;;;23.90;40.80;;;;;;6152780;28;83576;-61
2021/11/06 03:22:42;;;;;;;5.93;3.78;;;23.90;41.80;;;;;;6151129;28;80744;-61
2021/11/06 03:25:42;;;;;;;7.22;4.20;;;23.90;41.00;;;;;;6158243;28;80659;-61
2021/11/06 03:28:43;;;;;;;5.70;4.13;;;23.90;40.20;;;;;;6155484;28;80371;-60
2021/11/06 03:31:44;;;;;;;5.88;3.97;;;23.90;40.10;;;;;;6155275;28;87057;-63
2021/11/06 03:34:44;;;;;;;5.05;3.75;;;23.90;39.80;;;;;;6149967;28;80837;-62
2021/11/06 03:37:45;;;;;;;5.72;3.80;;;24.00;39.50;;;;;;6141751;28;80286;-62
2021/11/06 03:40:45;;;;;;;5.35;4.30;;;24.00;39.50;;;;;;6140621;28;80570;-61
2021/11/06 03:43:45;;;;;;;5.63;3.90;;;24.00;39.00;;;;;;6157737;28;81334;-61
2021/11/06 03:46:46;;;;;;;4.97;3.50;;;24.00;39.00;;;;;;6157639;28;80523;-62
2021/11/06 03:49:47;;;;;;;5.40;3.45;;;24.00;38.90;;;;;;6144413;28;80589;-62
2021/11/06 03:52:47;;;;;;;4.47;3.50;;;24.10;38.90;;;;;;6160109;28;80380;-61
2021/11/06 03:55:48;;;;;;;5.20;3.50;;;24.10;39.00;;;;;;6142139;28;81082;-61
2021/11/06 03:58:48;;;;;;;5.47;3.20;;;24.10;38.80;;;;;;6139347;28;81917;-61
2021/11/06 04:01:49;;;;;;;6.05;3.80;;;24.10;38.80;;;;;;6155597;28;80338;-60
2021/11/06 04:04:49;;;;;;;5.57;3.42;;;24.10;38.90;;;;;;6141041;28;80588;-61
2021/11/06 04:07:50;;;;;;;4.25;3.10;;;24.10;38.60;;;;;;6141617;28;83098;-61
2021/11/06 04:10:50;;;;;;;4.32;3.22;;;24.10;38.60;;;;;;6149205;28;80584;-62
2021/11/06 04:13:51;;;;;;;4.85;3.38;;;24.10;38.60;;;;;;6142830;28;80856;-63
2021/11/06 04:16:51;;;;;;;4.63;3.70;;;24.10;38.60;;;;;;6157926;28;80612;-63
2021/11/06 04:19:52;;;;;;;4.10;3.22;;;24.20;38.50;;;;;;6149267;28;81863;-62
2021/11/06 04:22:52;;;;;;;4.80;3.03;;;24.10;38.30;;;;;;6154825;28;80130;-63
2021/11/06 04:25:53;;;;;;;5.22;3.60;;;24.20;38.30;;;;;;6144970;28;80271;-63
2021/11/06 04:28:53;;;;;;;4.53;3.60;;;24.20;38.40;;;;;;6144461;28;82926;-62
2021/11/06 04:31:54;;;;;;;5.47;3.30;;;24.20;38.40;;;;;;6153210;28;80738;-62
2021/11/06 04:34:54;;;;;;;4.78;3.42;;;24.20;38.40;;;;;;6146046;28;80549;-61
2021/11/06 04:37:55;;;;;;;4.78;3.03;;;24.20;38.50;;;;;;6149925;28;81585;-62
2021/11/06 04:40:55;;;;;;;4.85;3.28;;;24.20;38.50;;;;;;6152168;28;80706;-62
2021/11/06 04:43:56;;;;;;;4.00;3.00;;;24.20;38.50;;;;;;6141350;28;80981;-62
2021/11/06 04:46:57;;;;;;;3.80;2.85;;;24.20;38.50;;;;;;6148974;28;81823;-61
2021/11/06 04:49:57;;;;;;;4.07;3.35;;;24.30;38.60;;;;;;6138792;28;80645;-62
2021/11/06 04:52:58;;;;;;;3.70;2.88;;;24.20;38.50;;;;;;6143131;28;80076;-61
2021/11/06 04:55:58;;;;;;;4.38;3.00;;;24.30;38.70;;;;;;6153706;28;81972;-62
2021/11/06 04:58:59;;;;;;;4.53;3.05;;;24.30;38.70;;;;;;6159043;28;80422;-62
2021/11/06 05:02:01;;;;;;;3.85;2.92;;;24.30;38.70;;;;;;6152602;28;80859;-59
2021/11/06 05:05:02;;;;;;;4.30;3.42;;;24.30;38.60;;;;;;6159057;28;81556;-61
2021/11/06 05:08:02;;;;;;;3.08;2.60;;;24.30;38.70;;;;;;6148341;28;80262;-61
2021/11/06 05:11:03;;;;;;;5.40;3.22;;;24.30;38.80;;;;;;6158572;28;80280;-60
2021/11/06 05:14:03;;;;;;;4.32;2.85;;;24.30;38.70;;;;;;6152081;28;81503;-60
2021/11/06 05:17:04;;;;;;;5.18;3.22;;;24.30;38.50;;;;;;6139544;28;82662;-61
2021/11/06 05:20:04;;;;;;;4.80;3.22;;;24.30;39.00;;;;;;6145870;28;81553;-60
2021/11/06 05:23:05;;;;;;;4.50;3.25;;;24.30;39.10;;;;;;6141743;28;80446;-60
2021/11/06 05:26:06;;;;;;;8.55;3.28;;;24.30;38.70;;;;;;6147562;28;80594;-60
2021/11/06 05:29:07;;;;;;;4.15;3.20;;;24.30;39.80;;;;;;6153855;28;80892;-59
2021/11/06 05:32:07;;;;;;;5.82;3.35;;;24.40;39.50;;;;;;6146836;28;80424;-60
2021/11/06 05:35:08;;;;;;;3.95;3.05;;;24.40;39.90;;;;;;6142730;28;80492;-60
2021/11/06 05:38:08;;;;;;;423.30;124.38;;;24.40;40.00;;;;;;6140328;28;80041;-60
2021/11/06 05:41:09;;;;;;;803.35;308.17;;;24.40;39.90;;;;;;6141737;28;85544;-60
2021/11/06 05:44:09;;;;;;;687.58;245.20;;;24.40;40.00;;;;;;6142161;28;85758;-60
2021/11/06 05:47:10;;;;;;;628.80;223.10;;;24.40;40.60;;;;;;6138539;28;85550;-61
2021/11/06 05:50:10;;;;;;;668.63;249.88;;;24.40;40.80;;;;;;6133857;28;85291;-60
2021/11/06 05:53:11;;;;;;;638.30;230.40;;;24.40;40.50;;;;;;6145688;28;85861;-61
2021/11/06 05:56:14;;;;;;;586.60;206.98;;;24.40;40.30;;;;;;6136934;28;86306;-60
2021/11/06 05:59:15;;;;;;;567.20;202.20;;;24.40;40.20;;;;;;6150799;28;86511;-60
2021/11/06 06:02:15;;;;;;;515.17;173.07;;;24.40;40.50;;;;;;6147377;28;85569;-59
2021/11/06 06:05:16;;;;;;;509.73;167.20;;;24.30;40.20;;;;;;6149040;28;86180;-59
2021/11/06 06:08:17;;;;;;;484.83;160.18;;;24.30;40.20;;;;;;6147848;28;85548;-59
2021/11/06 06:11:18;;;;;;;445.33;147.07;;;24.30;40.00;;;;;;6138409;28;85610;-59
2021/11/06 06:14:18;;;;;;;436.00;147.70;;;24.30;39.90;;;;;;6150148;28;86304;-59
2021/11/06 06:17:19;;;;;;;445.52;145.85;;;24.30;40.00;;;;;;6141778;28;85488;-59
2021/11/06 06:20:19;;;;;;;437.08;145.35;;;24.20;39.90;;;;;;6149178;28;87414;-59
2021/11/06 06:23:20;;;;;;;421.05;143.68;;;24.20;39.90;;;;;;6144441;28;85957;-59
2021/11/06 06:26:20;;;;;;;389.10;132.98;;;24.20;40.40;;;;;;6140333;28;87926;-60
2021/11/06 06:29:21;;;;;;;346.35;119.00;;;24.20;40.90;;;;;;6149070;28;85449;-59
2021/11/06 06:32:21;;;;;;;314.00;108.00;;;24.20;40.90;;;;;;6147542;28;85832;-59
2021/11/06 06:35:22;;;;;;;298.40;104.35;;;24.20;40.70;;;;;;6138761;28;86951;-59
2021/11/06 06:38:23;;;;;;;275.85;94.97;;;24.20;40.50;;;;;;6139685;28;85430;-60
2021/11/06 06:41:23;;;;;;;254.65;89.82;;;24.20;40.60;;;;;;6138825;28;85808;-60
2021/11/06 06:44:24;;;;;;;231.18;83.03;;;24.20;40.70;;;;;;6142569;28;83494;-60
2021/11/06 06:47:24;;;;;;;210.38;78.50;;;24.20;41.00;;;;;;6145129;28;83306;-60
2021/11/06 06:50:25;;;;;;;194.15;73.57;;;24.20;40.90;;;;;;6153404;28;82876;-60
2021/11/06 06:53:25;;;;;;;192.32;68.95;;;24.20;40.80;;;;;;6141864;28;83568;-60
2021/11/06 06:56:26;;;;;;;161.93;61.70;;;24.20;40.90;;;;;;6141310;28;83449;-60
2021/11/06 06:59:26;;;;;;;161.32;58.38;;;24.10;41.30;;;;;;6143708;28;84603;-62
2021/11/06 07:02:27;;;;;;;156.40;53.45;;;24.20;41.30;;;;;;6136624;28;84460;-60
2021/11/06 07:05:27;;;;;;;139.35;53.45;;;24.20;41.30;;;;;;6144890;28;83627;-60
2021/11/06 07:08:28;;;;;;;120.97;47.83;;;24.20;41.20;;;;;;6148480;28;83768;-61
2021/11/06 07:11:28;;;;;;;109.60;44.13;;;24.20;41.80;;;;;;6138539;28;85811;-60
2021/11/06 07:14:29;;;;;;;115.40;39.83;;;24.20;41.10;;;;;;6137543;28;83310;-60
2021/11/06 07:17:30;;;;;;;101.90;39.08;;;24.20;41.20;;;;;;6134999;28;83791;-60
2021/11/06 07:20:30;;;;;;;93.55;33.33;;;24.30;41.50;;;;;;6141004;28;83422;-61
2021/11/06 07:23:31;;;;;;;76.88;31.65;;;24.30;41.50;;;;;;6146334;28;84198;-62
2021/11/06 07:26:31;;;;;;;84.85;29.58;;;24.30;41.80;;;;;;6149300;28;84648;-60
2021/11/06 07:29:32;;;;;;;72.38;26.67;;;24.30;41.80;;;;;;6137656;28;83058;-60
2021/11/06 07:32:32;;;;;;;63.92;26.25;;;24.30;42.20;;;;;;6145065;28;83131;-60
2021/11/06 07:35:33;;;;;;;59.10;24.00;;;24.30;41.60;;;;;;6139678;28;84174;-60
2021/11/06 07:38:34;;;;;;;50.95;21.05;;;24.30;41.50;;;;;;6147903;28;83203;-60
2021/11/06 07:41:34;;;;;;;53.78;21.25;;;24.30;41.40;;;;;;6149520;28;85893;-60
2021/11/06 07:44:35;;;;;;;55.05;21.25;;;24.30;41.20;;;;;;6144509;28;84575;-61
2021/11/06 07:47:35;;;;;;;43.85;19.00;;;24.30;41.50;;;;;;6138839;28;84093;-60
2021/11/06 07:50:36;;;;;;;46.05;18.75;;;24.30;41.10;;;;;;6139606;28;83688;-60
2021/11/06 07:53:36;;;;;;;43.70;18.38;;;24.30;40.70;;;;;;6151246;28;84294;-60
2021/11/06 07:56:38;;;;;;;35.90;16.55;;;24.30;40.90;;;;;;6141812;28;83290;-61
2021/11/06 07:59:39;;;;;;;37.50;14.32;;;24.40;41.40;;;;;;6142783;28;90348;-61
2021/11/06 08:02:39;;;;;;;40.47;15.20;;;24.40;41.70;;;;;;6142108;28;83206;-60
2021/11/06 08:05:39;;;;;;;32.88;14.30;;;24.40;41.80;;;;;;6149555;28;83050;-60
2021/11/06 08:08:40;;;;;;;29.73;12.45;;;24.40;41.20;;;;;;6153207;28;83013;-60
2021/11/06 08:11:40;;;;;;;30.67;13.10;;;24.40;41.30;;;;;;6136725;28;85790;-60
2021/11/06 08:14:41;;;;;;;32.05;12.73;;;24.40;41.30;;;;;;6138749;28;84333;-60
2021/11/06 08:17:41;;;;;;;32.35;12.73;;;24.50;40.90;;;;;;6144073;28;83216;-59
2021/11/06 08:20:42;;;;;;;19.65;10.27;;;24.50;41.10;;;;;;6144995;28;84171;-59
2021/11/06 08:23:42;;;;;;;21.10;10.50;;;24.60;41.30;;;;;;6148363;28;83611;-59
2021/11/06 08:26:43;;;;;;;19.15;9.73;;;24.70;41.10;;;;;;6138169;28;82855;-60
2021/11/06 08:29:44;;;;;;;24.67;8.95;;;24.80;41.30;;;;;;6138905;28;83002;-61
2021/11/06 08:32:44;;;;;;;18.92;8.75;;;24.90;41.00;;;;;;6141409;28;80363;-60
2021/11/06 08:35:45;;;;;;;22.75;8.68;;;24.90;40.80;;;;;;6145942;28;80917;-58
2021/11/06 08:38:45;;;;;;;19.73;7.30;;;25.00;40.60;;;;;;6150491;28;80482;-58
2021/11/06 08:41:46;;;;;;;16.42;7.10;;;25.00;41.00;;;;;;6142655;28;80832;-59
2021/11/06 08:44:47;;;;;;;16.40;7.07;;;25.10;40.90;;;;;;6145762;28;80818;-59
2021/11/06 08:47:48;;;;;;;17.20;7.40;;;25.10;41.60;;;;;;6144446;28;82297;-62
2021/11/06 08:50:48;;;;;;;45.47;20.85;;;25.20;41.30;;;;;;6149849;28;80278;-62
2021/11/06 08:53:49;;;;;;;150.80;64.60;;;25.20;40.50;;;;;;6147655;28;82791;-60
2021/11/06 08:56:50;;;;;;;269.25;112.30;;;25.10;39.20;;;;;;6150103;28;83311;-61
2021/11/06 08:59:54;;;;;;;311.23;125.35;;;25.10;38.60;;;;;;6144958;28;85495;-62
2021/11/06 09:02:54;;;;;;;349.85;136.45;;;25.10;38.00;;;;;;6148294;28;85770;-61
2021/11/06 09:05:55;;;;;;;278.17;107.63;;;25.10;37.80;;;;;;6140580;28;85554;-61
2021/11/06 09:08:55;;;;;;;273.52;106.85;;;25.10;36.70;;;;;;6145061;28;85364;-67
2021/11/06 09:11:56;;;;;;;495.98;173.88;;;25.10;36.80;;;;;;6139525;28;85299;-62
2021/11/06 09:14:56;;;;;;;461.77;157.65;;;25.10;35.80;;;;;;6144932;28;86243;-62
2021/11/06 09:17:57;;;;;;;344.65;117.22;;;25.10;36.30;;;;;;6146744;28;85597;-62
2021/11/06 09:20:57;;;;;;;273.70;98.13;;;25.10;35.30;;;;;;6144068;28;85864;-63
2021/11/06 09:24:03;;;;;;;213.68;74.95;;;25.10;35.20;;;;;;6149110;28;85677;-62
2021/11/06 09:27:03;;;;;;;166.38;59.00;;;25.20;35.00;;;;;;6157653;28;85043;-63
2021/11/06 09:30:04;;;;;;;127.70;46.58;;;25.20;34.40;;;;;;6150869;28;83322;-63
2021/11/06 09:33:04;;;;;;;112.53;37.90;;;25.20;34.10;;;;;;6151000;28;83146;-63
2021/11/06 09:36:05;;;;;;;69.60;26.52;;;25.20;34.00;;;;;;6149296;28;83220;-63
2021/11/06 09:39:05;;;;;;;57.13;21.17;;;25.20;34.00;;;;;;6151495;28;82983;-63
2021/11/06 09:42:06;;;;;;;48.72;18.63;;;25.10;33.70;;;;;;6153621;28;83416;-63
2021/11/06 09:45:06;;;;;;;38.95;15.32;;;25.10;34.30;;;;;;6152237;28;84080;-63
2021/11/06 09:48:07;;;;;;;34.85;14.02;;;25.10;33.60;;;;;;6141361;28;84789;-63
2021/11/06 09:51:07;;;;;;;26.08;10.70;;;25.10;33.70;;;;;;6153467;28;83807;-62
2021/11/06 09:54:08;;;;;;;17.58;8.23;;;25.10;33.30;;;;;;6151694;28;85686;-61
2021/11/06 09:57:09;;;;;;;16.90;9.10;;;25.10;33.00;;;;;;6152843;28;85868;-62
2021/11/06 10:00:09;;;;;;;14.65;7.28;;;25.10;33.10;;;;;;6149986;28;80647;-61
2021/11/06 10:03:13;;;;;;;13.15;6.90;;;25.10;33.50;;;;;;6154105;28;80260;-61
2021/11/06 10:06:14;;;;;;;12.93;6.18;;;25.10;33.60;;;;;;6149590;28;80366;-62
2021/11/06 10:09:15;;;;;;;13.95;6.68;;;25.20;34.30;;;;;;6155493;28;80244;-61
2021/11/06 10:12:15;;;;;;;16.85;8.43;;;25.20;34.90;;;;;;6152566;28;80798;-62
2021/11/06 10:15:16;;;;;;;16.35;7.68;;;25.40;36.60;;;;;;6155136;28;82969;-61
2021/11/06 10:18:16;;;;;;;11.50;6.07;;;25.40;36.20;;;;;;6152995;28;81696;-61
2021/11/06 10:21:17;;;;;;;10.13;5.15;;;25.40;35.40;;;;;;6157466;28;81114;-62
2021/11/06 10:24:18;;;;;;;6.65;4.00;;;25.40;34.60;;;;;;6155382;28;81010;-63
2021/11/06 10:27:18;;;;;;;8.45;3.58;;;25.30;33.50;;;;;;6149308;28;80590;-61
2021/11/06 10:30:19;;;;;;;7.90;3.70;;;25.20;33.40;;;;;;6151829;28;80255;-61
2021/11/06 10:33:20;;;;;;;4.90;3.47;;;25.30;33.80;;;;;;6156961;28;81251;-60
2021/11/06 10:36:21;;;;;;;4.00;2.63;;;25.20;32.90;;;;;;6152021;28;80618;-60
2021/11/06 10:39:21;;;;;;;2.28;2.08;;;24.30;31.30;;;;;;6154781;28;80777;-60
2021/11/06 10:42:22;;;;;;;2.97;2.17;;;23.90;31.50;;;;;;6156538;28;80506;-61
2021/11/06 10:45:22;;;;;;;3.92;2.35;;;24.00;31.90;;;;;;6150967;28;81316;-61
2021/11/06 10:48:23;;;;;;;6.90;2.38;;;24.10;31.60;;;;;;6154355;28;80267;-60
2021/11/06 10:51:23;;;;;;;3.95;2.40;;;23.70;32.20;;;;;;6152730;28;81668;-60
2021/11/06 10:54:24;;;;;;;3.85;2.50;;;24.00;32.90;;;;;;6149175;28;82697;-60
2021/11/06 10:57:25;;;;;;;3.13;2.22;;;24.30;32.30;;;;;;6151324;28;80411;-60
2021/11/06 11:00:25;;;;;;;3.42;2.10;;;24.10;32.30;;;;;;6151861;28;80879;-62
2021/11/06 11:03:26;;;;;;;2.08;1.88;;;24.10;32.60;;;;;;6154173;28;80766;-60
2021/11/06 11:06:34;;;;;;;3.13;2.25;;;24.30;32.40;;;;;;6153160;28;82008;-60
2021/11/06 11:09:36;;;;;;;4.28;2.35;;;24.40;32.70;;;;;;6153579;28;81520;-60
2021/11/06 11:12:37;;;;;;;3.45;2.28;;;24.50;31.90;;;;;;6154219;28;80433;-61
2021/11/06 11:15:37;;;;;;;2.63;2.08;;;24.50;32.50;;;;;;6152435;28;80915;-61
2021/11/06 11:18:38;;;;;;;3.17;2.40;;;24.60;32.20;;;;;;6155186;28;80544;-62
2021/11/06 11:21:38;;;;;;;4.35;2.63;;;24.80;32.60;;;;;;6149577;28;80637;-61
2021/11/06 11:24:39;;;;;;;4.72;2.60;;;24.90;32.70;;;;;;6151872;28;80085;-61
2021/11/06 11:27:39;;;;;;;4.05;2.30;;;25.10;33.80;;;;;;6152829;28;82863;-61
2021/11/06 11:30:40;;;;;;;3.28;2.30;;;25.10;35.70;;;;;;6150174;28;82051;-62
2021/11/06 11:33:40;;;;;;;4.68;1.83;;;25.10;36.60;;;;;;6151480;28;80239;-62
2021/11/06 11:36:41;;;;;;;1.85;1.50;;;25.20;37.20;;;;;;6155662;28;80331;-61
2021/11/06 11:39:41;;;;;;;6.93;1.60;;;25.20;37.90;;;;;;6140084;28;81475;-62
2021/11/06 11:42:42;;;;;;;1.40;1.30;;;25.30;38.10;;;;;;6150061;28;81792;-62
2021/11/06 11:45:42;;;;;;;1.92;1.10;;;25.30;37.60;;;;;;6151182;28;80602;-62
2021/11/06 11:48:43;;;;;;;1.90;1.42;;;25.30;38.30;;;;;;6150889;28;81535;-61
2021/11/06 11:51:44;;;;;;;1.58;1.40;;;25.40;37.90;;;;;;6148025;28;81413;-60
2021/11/06 11:54:44;;;;;;;3.20;1.55;;;25.40;37.20;;;;;;6151371;28;81137;-60
2021/11/06 11:57:45;;;;;;;1.33;1.23;;;25.40;37.50;;;;;;6143268;28;80994;-61
2021/11/06 12:00:46;;;;;;;3.47;2.00;;;25.40;36.00;;;;;;6149709;28;80802;-60
2021/11/06 12:03:47;;;;;;;2.20;1.50;;;25.40;35.30;;;;;;6151994;28;80479;-60
2021/11/06 12:06:47;;;;;;;2.60;1.80;;;25.30;35.40;;;;;;6146001;28;82056;-60
2021/11/06 12:09:48;;;;;;;2.13;1.92;;;24.90;32.60;;;;;;6145985;28;80203;-60
2021/11/06 12:12:48;;;;;;;2.60;1.75;;;24.60;31.20;;;;;;6148480;28;80352;-61
2021/11/06 12:15:49;;;;;;;1.55;1.40;;;24.40;32.20;;;;;;6151803;28;80252;-60
2021/11/06 12:18:51;;;;;;;1.60;1.50;;;24.50;33.00;;;;;;6156287;28;80188;-61
2021/11/06 12:21:51;;;;;;;1.67;1.40;;;24.60;34.80;;;;;;6152188;28;80538;-61
2021/11/06 12:24:52;;;;;;;2.97;1.77;;;24.50;33.10;;;;;;6152133;28;81412;-61
2021/11/06 12:27:53;;;;;;;1.83;1.50;;;24.70;34.80;;;;;;6141909;28;80463;-62
2021/11/06 12:30:54;;;;;;;1.65;1.55;;;24.60;35.40;;;;;;6139980;28;81151;-62
2021/11/06 12:33:54;;;;;;;8.65;2.88;;;24.70;35.50;;;;;;6152185;28;81555;-61
2021/11/06 12:36:55;;;;;;;4.22;1.90;;;24.90;35.20;;;;;;6151912;28;80624;-61
2021/11/06 12:39:56;;;;;;;2.28;1.80;;;24.70;33.90;;;;;;6141484;28;81450;-61
2021/11/06 12:42:56;;;;;;;2.17;1.77;;;24.40;32.20;;;;;;6147382;28;81765;-60
2021/11/06 12:45:57;;;;;;;6.57;2.05;;;24.30;32.80;;;;;;6149206;28;80434;-61
2021/11/06 12:48:57;;;;;;;3.38;1.95;;;24.40;34.40;;;;;;6155293;28;81297;-60
2021/11/06 12:51:58;;;;;;;2.92;2.00;;;24.50;34.20;;;;;;6143905;28;81068;-60
2021/11/06 12:54:58;;;;;;;2.53;2.03;;;24.70;34.80;;;;;;6156029;28;80869;-60
2021/11/06 12:57:59;;;;;;;4.90;2.22;;;24.70;34.30;;;;;;6138578;28;87830;-60
2021/11/06 13:00:59;;;;;;;2.00;1.42;;;24.60;33.90;;;;;;6145413;28;80797;-60
2021/11/06 13:04:00;;;;;;;3.00;1.77;;;24.80;35.30;;;;;;6145730;28;80691;-60
2021/11/06 13:07:02;;;;;;;4.75;3.47;;;24.90;34.80;;;;;;6147136;28;82013;-60
2021/11/06 13:10:02;;;;;;;2.70;2.35;;;24.90;34.60;;;;;;6147602;28;81419;-60
2021/11/06 13:13:03;;;;;;;3.10;2.58;;;24.70;34.20;;;;;;6143069;28;80138;-60
2021/11/06 13:16:06;;;;;;;2.97;1.80;;;24.70;34.60;;;;;;6145919;28;80410;-60
2021/11/06 13:19:06;;;;;;;4.05;2.15;;;24.60;34.80;;;;;;6148401;28;80517;-62
2021/11/06 13:22:07;;;;;;;83.03;27.92;;;24.70;34.70;;;;;;6144904;28;80970;-61
2021/11/06 13:25:07;;;;;;;222.90;73.72;;;24.90;36.00;;;;;;6143438;28;83039;-60
2021/11/06 13:28:08;;;;;;;406.80;125.72;;;25.00;36.40;;;;;;6146666;28;84138;-60
2021/11/06 13:31:08;;;;;;;355.98;115.90;;;25.10;36.70;;;;;;6140991;28;86535;-61
2021/11/06 13:34:09;;;;;;;318.90;103.40;;;25.20;37.20;;;;;;6144687;28;85996;-59
2021/11/06 13:37:09;;;;;;;550.78;181.32;;;25.30;37.70;;;;;;6142342;28;85569;-61
2021/11/06 13:40:10;;;;;;;458.35;143.05;;;25.30;37.40;;;;;;6144064;28;86020;-61
2021/11/06 13:43:11;;;;;;;361.40;105.32;;;25.30;37.60;;;;;;6146743;28;85756;-60
2021/11/06 13:46:12;;;;;;;234.23;77.43;;;25.30;37.20;;;;;;6142827;28;85878;-61
2021/11/06 13:49:13;;;;;;;178.88;56.38;;;25.50;39.40;;;;;;6145110;28;85152;-60
2021/11/06 13:52:13;;;;;;;127.03;41.00;;;25.90;38.40;;;;;;6143829;28;84750;-60
2021/11/06 13:55:14;;;;;;;98.18;31.67;;;25.80;36.80;;;;;;6145721;28;88384;-61
2021/11/06 13:58:14;;;;;;;79.07;27.02;;;25.80;37.30;;;;;;6140175;28;83840;-60
2021/11/06 14:01:15;;;;;;;64.82;20.05;;;25.70;37.50;;;;;;6143807;28;83140;-60
2021/11/06 14:04:15;;;;;;;51.65;17.35;;;25.60;36.60;;;;;;6149591;28;84100;-60
2021/11/06 14:07:16;;;;;;;39.40;14.25;;;25.60;37.50;;;;;;6148142;28;83135;-61
2021/11/06 14:10:16;;;;;;;34.22;11.60;;;25.50;37.40;;;;;;6144891;28;83549;-61
2021/11/06 14:13:17;;;;;;;21.42;9.13;;;25.50;38.00;;;;;;6146211;28;83806;-60
2021/11/06 14:16:19;;;;;;;74.90;26.65;;;25.40;37.50;;;;;;6146729;28;83340;-61
2021/11/06 14:19:20;;;;;;;167.82;62.45;;;25.40;37.50;;;;;;6150193;28;83194;-61
2021/11/06 14:22:27;;;;;;;170.68;62.33;;;25.40;37.80;;;;;;6152647;28;83992;-61
2021/11/06 14:25:28;;;;;;;132.60;48.40;;;25.30;37.60;;;;;;6146222;28;83555;-61
2021/11/06 14:28:28;;;;;;;92.07;36.60;;;25.30;38.00;;;;;;6141990;28;83842;-62
2021/11/06 14:31:29;;;;;;;69.45;27.17;;;25.20;37.90;;;;;;6150547;28;86857;-60
2021/11/06 14:34:32;;;;;;;55.00;21.45;;;25.20;37.80;;;;;;6150085;28;83540;-60
2021/11/06 14:37:33;;;;;;;39.30;14.48;;;25.10;38.10;;;;;;6148044;28;83548;-61
2021/11/06 14:40:33;;;;;;;33.13;13.05;;;25.00;37.60;;;;;;6150743;28;83217;-61
2021/11/06 14:43:34;;;;;;;25.08;10.93;;;24.90;37.70;;;;;;6152352;28;82769;-61
2021/11/06 14:46:34;;;;;;;24.30;9.30;;;24.90;38.20;;;;;;6150746;28;83478;-62
2021/11/06 14:49:35;;;;;;;19.27;8.23;;;24.80;38.80;;;;;;6154807;28;85155;-62
2021/11/06 14:52:35;;;;;;;16.05;7.28;;;24.80;39.10;;;;;;6154181;28;81417;-64
2021/11/06 14:55:36;;;;;;;14.90;5.38;;;24.80;38.90;;;;;;6151071;28;80386;-63
2021/11/06 14:58:36;;;;;;;11.02;4.88;;;24.70;39.30;;;;;;6153322;28;81039;-65
2021/11/06 15:01:37;;;;;;;10.05;3.90;;;24.90;39.30;;;;;;6153323;28;80507;-66
2021/11/06 15:04:37;;;;;;;7.93;3.70;;;24.90;39.00;;;;;;6154597;28;80877;-69
2021/11/06 15:07:38;;;;;;;6.20;3.20;;;25.10;39.60;;;;;;6149878;28;79993;-69
2021/11/06 15:10:38;;;;;;;3.50;2.60;;;25.10;38.90;;;;;;6150578;28;80802;-70
2021/11/06 15:13:41;;;;;;;5.03;2.80;;;25.10;39.00;;;;;;6147215;28;81249;-66
2021/11/06 15:16:42;;;;;;;8.50;2.50;;;25.10;39.20;;;;;;6152924;28;81584;-61
2021/11/06 15:19:42;;;;;;;2.80;2.03;;;25.10;39.70;;;;;;6150826;28;80617;-66
2021/11/06 15:22:43;;;;;;;5.95;2.28;;;25.10;39.80;;;;;;6149075;28;81241;-62
2021/11/06 15:25:43;;;;;;;4.85;2.10;;;25.00;40.00;;;;;;6168168;28;80404;-64